Time;durP1;ratioP1;P1;durP2;ratioP2;P2;SDS_P1;SDS_P2;PMS_P1;PMS_P2;Temp;Humidity;BMP_temperature;BMP_pressure;BME280_temperature;BME280_humidity;BME280_pressure;Samples;Min_cycle;Max_cycle;Signal;HPM_P1;HPM_P2
2022/09/09 07:20:57;;;;;;;6.63;0.90;;;;;;;18.12;64.10;96272.56;2093164;28;20553;-65
2022/09/09 07:21:58;;;;;;;3.10;1.00;;;;;;;17.87;64.51;96297.44;2087057;28;20227;-65
2022/09/09 07:28:07;;;;;;;6.60;1.02;;;;;;;17.12;68.03;96300.53;2078174;28;20271;-62
2022/09/09 07:46:06;;;;;;;5.68;1.10;;;;;;;18.69;63.29;96309.34;2100816;28;20442;-62
2022/09/09 07:47:20;;;;;;;2.83;0.95;;;;;;;18.58;63.05;96300.50;2083751;28;21072;-63
2022/09/09 07:48:22;;;;;;;3.92;1.25;;;;;;;18.50;63.25;96304.72;2074805;28;20239;-63
2022/09/09 07:49:24;;;;;;;8.30;1.08;;;;;;;18.52;63.56;96295.72;2075585;28;20231;-63
2022/09/09 07:50:32;;;;;;;5.00;1.00;;;;;;;18.12;64.39;96301.63;2076214;28;20254;-63
2022/09/09 08:00:02;;;;;;;10.32;1.40;;;;;;;19.72;59.13;96268.03;2085425;28;20571;-62
2022/09/09 08:01:13;;;;;;;3.80;0.90;;;;;;;20.27;58.48;96304.72;2082923;28;20204;-62
2022/09/09 08:02:14;;;;;;;3.35;1.30;;;;;;;20.34;58.40;96303.19;2080311;28;20228;-63
2022/09/09 08:03:15;;;;;;;4.47;1.20;;;;;;;20.27;57.36;96302.06;2076108;28;20206;-64
2022/09/09 08:04:19;;;;;;;7.97;1.23;;;;;;;19.80;58.71;96309.75;2073476;28;20201;-62
2022/09/09 08:05:22;;;;;;;4.55;0.90;;;;;;;20.23;59.04;96304.16;2075715;28;20276;-63
2022/09/09 08:06:24;;;;;;;3.75;1.33;;;;;;;20.36;57.70;96311.84;2074282;28;20288;-63
2022/09/09 08:07:26;;;;;;;4.93;1.10;;;;;;;20.47;57.16;96291.50;2073183;28;20245;-63
2022/09/09 08:08:31;;;;;;;4.82;1.17;;;;;;;20.78;56.60;96316.09;2072821;28;20225;-63
2022/09/09 08:09:33;;;;;;;5.35;1.15;;;;;;;20.65;57.30;96326.94;2072739;28;20280;-63
2022/09/09 08:10:34;;;;;;;6.00;0.90;;;;;;;20.80;56.99;96332.72;2074772;28;20240;-63
2022/09/09 08:11:37;;;;;;;5.60;1.20;;;;;;;20.28;57.55;96316.16;2074045;28;20281;-63
2022/09/09 08:12:40;;;;;;;8.93;1.05;;;;;;;20.32;58.09;96334.31;2072291;28;20233;-63
2022/09/09 08:13:56;;;;;;;5.30;1.15;;;;;;;20.29;57.70;96329.28;2068394;28;20578;-62
2022/09/09 08:15:03;;;;;;;5.95;1.50;;;;;;;20.15;57.47;96311.97;2074641;28;20201;-63
2022/09/09 08:16:09;;;;;;;4.18;0.90;;;;;;;20.72;57.34;96335.22;2076565;28;20204;-62
2022/09/09 08:17:10;;;;;;;3.03;0.90;;;;;;;20.48;56.57;96323.19;2069165;28;20236;-62
2022/09/09 08:18:12;;;;;;;4.97;1.10;;;;;;;20.28;57.35;96327.59;2071976;28;20300;-62
2022/09/09 08:19:17;;;;;;;7.38;1.40;;;;;;;20.27;57.67;96315.31;2071729;28;20240;-62
2022/09/09 08:20:18;;;;;;;4.07;1.13;;;;;;;20.48;57.88;96328.47;2071528;28;20483;-62
2022/09/09 08:21:31;;;;;;;3.30;1.02;;;;;;;20.66;57.62;96322.50;2075753;28;20279;-63
2022/09/09 08:22:34;;;;;;;5.63;1.30;;;;;;;20.28;58.41;96316.16;2071436;28;20312;-62
2022/09/09 08:23:36;;;;;;;13.70;1.27;;;;;;;20.16;57.81;96303.03;2072996;28;20202;-65
2022/09/09 08:24:37;;;;;;;3.53;0.90;;;;;;;19.63;60.05;96309.41;2072505;28;20197;-65
2022/09/09 08:25:39;;;;;;;7.47;1.30;;;;;;;18.88;62.29;96304.22;2072563;28;20233;-65
2022/09/09 08:26:43;;;;;;;9.48;1.20;;;;;;;18.51;63.47;96303.78;2072265;28;20281;-65
2022/09/09 08:27:45;;;;;;;6.57;1.20;;;;;;;18.14;64.14;96286.47;2074153;28;20344;-65
2022/09/09 08:31:57;;;;;;;3.00;1.00;;;;;;;18.43;64.36;96302.59;2083827;28;20576;-64
2022/09/09 08:33:01;;;;;;;10.75;1.38;;;;;;;18.32;65.57;96313.22;2078613;28;20205;-65
2022/09/09 08:57:13;;;;;;;3.38;1.05;;;;;;;18.19;61.31;96310.72;2083233;28;20568;-62
2022/09/09 08:58:21;;;;;;;5.55;0.90;;;;;;;18.91;60.35;96338.38;2083876;28;20448;-63
2022/09/09 08:59:23;;;;;;;11.23;1.35;;;;;;;19.11;59.22;96332.38;2084141;28;20282;-61
2022/09/09 09:00:37;;;;;;;3.05;0.90;;;;;;;19.01;58.98;96319.94;2084461;28;20326;-63
2022/09/09 09:01:56;;;;;;;8.35;1.08;;;;;;;19.32;58.16;96327.91;2080788;28;20567;-64
2022/09/09 09:03:17;;;;;;;4.18;1.55;;;;;;;19.16;59.61;96323.09;2082642;28;20251;-63
2022/09/09 09:04:57;;;;;;;5.78;1.45;;;;;;;18.66;61.16;96331.59;2089862;28;20701;-64
2022/09/09 09:06:23;;;;;;;10.18;1.10;;;;;;;18.99;61.33;96328.97;2077343;28;20200;-63
2022/09/09 09:13:47;;;;;;;10.35;1.50;;;;;;;18.87;61.43;96299.06;2084252;28;20573;-63
2022/09/09 09:14:49;;;;;;;5.05;1.25;;;;;;;19.40;59.35;96295.47;2082011;28;20195;-63
2022/09/09 09:15:59;;;;;;;5.53;1.00;;;;;;;19.92;58.52;96321.91;2083644;28;20283;-63
2022/09/09 09:17:04;;;;;;;4.53;1.30;;;;;;;19.70;58.88;96320.28;2076290;28;20201;-63
2022/09/09 09:18:10;;;;;;;4.75;1.25;;;;;;;19.25;59.84;96330.25;2070561;28;20197;-63
2022/09/09 09:19:16;;;;;;;12.20;1.00;;;;;;;19.38;58.87;96318.63;2076882;28;20228;-63
2022/09/09 09:20:24;;;;;;;8.63;1.38;;;;;;;19.56;58.83;96332.06;2068877;28;20609;-62
2022/09/09 09:21:47;;;;;;;3.22;1.00;;;;;;;19.39;58.25;96325.59;2066730;28;20229;-63
2022/09/09 09:22:52;;;;;;;4.68;1.00;;;;;;;19.06;59.59;96303.66;2065648;28;20365;-63
2022/09/09 09:24:00;;;;;;;3.13;1.00;;;;;;;19.24;58.86;96317.97;2060487;28;20762;-64
2022/09/09 09:25:20;;;;;;;6.13;1.00;;;;;;;19.29;58.08;96320.25;2065508;28;20198;-64
2022/09/09 09:26:26;;;;;;;4.78;1.23;;;;;;;19.69;58.16;96310.66;2063730;28;20205;-63
2022/09/09 09:27:36;;;;;;;4.30;1.33;;;;;;;20.08;56.57;96317.94;2066861;28;20248;-64
2022/09/09 09:28:39;;;;;;;6.03;1.58;;;;;;;20.15;58.61;96300.50;2065170;28;20201;-64
2022/09/09 09:29:44;;;;;;;5.03;1.10;;;;;;;20.58;58.60;96304.59;2065989;28;20293;-64
2022/09/09 09:31:13;;;;;;;4.90;1.30;;;;;;;19.91;59.52;96296.44;2064259;28;20259;-64
2022/09/09 09:32:19;;;;;;;5.68;1.23;;;;;;;20.84;58.06;96298.78;2066286;28;20224;-64
2022/09/09 09:33:49;;;;;;;6.28;1.45;;;;;;;21.10;55.94;96306.97;2067492;28;20885;-64
2022/09/09 09:34:58;;;;;;;6.75;1.15;;;;;;;20.38;56.43;96304.59;2063767;28;20221;-63
2022/09/09 09:35:59;;;;;;;5.35;1.30;;;;;;;20.23;56.93;96303.31;2065730;28;20256;-65
2022/09/09 09:46:04;;;;;;;4.47;1.16;;;;;;;19.30;59.45;96290.16;4247909;27;20872;-64
2022/09/09 09:47:32;;;;;;;8.88;1.52;;;;;;;19.12;59.62;96297.00;2088954;28;20567;-64
2022/09/09 09:48:34;;;;;;;2.97;1.00;;;;;;;19.20;59.65;96294.56;2087206;28;20212;-64
2022/09/09 09:49:36;;;;;;;7.47;1.10;;;;;;;19.15;59.58;96291.47;2087044;28;20300;-64
2022/09/09 09:50:57;;;;;;;4.95;1.15;;;;;;;19.06;59.51;96293.91;2086178;28;20892;-64
2022/09/09 09:56:53;;;;;;;5.95;1.10;;;;;;;20.92;54.89;96264.41;2084809;28;20584;-63
2022/09/09 09:58:01;;;;;;;6.75;1.10;;;;;;;21.12;54.80;96285.59;2078572;28;20326;-64
2022/09/09 10:04:11;;;;;;;6.95;1.35;;;;;;;22.29;51.78;96281.63;2082113;28;20209;-64
2022/09/09 10:05:13;;;;;;;5.90;1.05;;;;;;;21.93;51.92;96286.84;2084133;28;20201;-65
2022/09/09 10:06:14;;;;;;;2.90;0.95;;;;;;;21.97;51.03;96282.94;2078721;28;20280;-65
2022/09/09 10:07:21;;;;;;;5.70;1.20;;;;;;;22.10;51.34;96285.25;2079812;28;20300;-64
2022/09/09 10:08:27;;;;;;;7.85;1.23;;;;;;;21.74;52.13;96285.13;2080674;28;20288;-64
2022/09/09 10:09:33;;;;;;;2.92;1.08;;;;;;;21.54;51.50;96286.03;2079931;28;20217;-65
2022/09/09 10:10:45;;;;;;;3.88;1.23;;;;;;;22.42;51.08;96266.13;2084076;28;20319;-65
2022/09/09 10:11:57;;;;;;;2.55;1.00;;;;;;;22.53;50.07;96285.53;2080085;28;20287;-65
2022/09/09 10:13:27;;;;;;;3.10;0.93;;;;;;;22.69;49.44;96287.50;2080770;28;20217;-64
2022/09/09 10:14:47;;;;;;;4.35;0.80;;;;;;;23.12;48.68;96284.03;2081656;28;20201;-65
2022/09/09 10:16:20;;;;;;;5.72;1.00;;;;;;;23.27;48.18;96288.81;2080521;28;20593;-64
2022/09/09 10:17:40;;;;;;;6.55;1.20;;;;;;;22.87;47.24;96296.31;2081568;28;20578;-65
2022/09/09 10:19:02;;;;;;;5.70;0.82;;;;;;;22.88;47.14;96291.81;2081805;28;20232;-65
2022/09/09 10:20:10;;;;;;;8.48;0.95;;;;;;;22.98;47.34;96293.41;2083826;28;20235;-64
2022/09/09 10:21:27;;;;;;;7.22;1.10;;;;;;;23.00;47.84;96275.44;2074793;28;20208;-65
2022/09/09 10:22:34;;;;;;;9.50;0.85;;;;;;;22.65;48.27;96286.97;2075606;28;20254;-65
2022/09/09 10:24:05;;;;;;;5.38;1.27;;;;;;;23.37;46.92;96270.88;2080834;28;20193;-65
2022/09/09 10:25:16;;;;;;;3.85;1.20;;;;;;;23.17;47.37;96277.41;2081455;28;20231;-63
2022/09/09 10:26:45;;;;;;;6.07;1.27;;;;;;;22.47;49.84;96293.16;2080254;28;20236;-64
2022/09/09 10:34:37;;;;;;;5.38;1.15;;;;;;;21.47;48.11;96286.75;2080243;28;20695;-67
2022/09/09 10:42:05;;;;;;;2.15;0.85;;;;;;;20.39;50.52;96286.84;2086699;28;20582;-65
2022/09/09 10:43:15;;;;;;;4.97;1.25;;;;;;;19.93;52.45;96291.81;2069130;28;20237;-65
2022/09/09 10:44:25;;;;;;;3.50;1.13;;;;;;;19.82;54.34;96305.13;2065077;28;20348;-65
2022/09/09 10:45:39;;;;;;;5.65;1.10;;;;;;;19.77;54.72;96299.41;2064596;28;20210;-65
2022/09/09 10:54:28;;;;;;;5.22;0.93;;;;;;;18.23;60.91;96338.59;2067104;27;1252764;-63
2022/09/09 10:55:42;;;;;;;2.45;1.00;;;;;;;17.93;61.38;96337.44;2103141;28;20340;-64
2022/09/09 10:56:56;;;;;;;3.50;1.17;;;;;;;17.76;62.80;96353.72;2102024;28;20286;-64
2022/09/09 11:06:04;;;;;;;5.10;0.98;;;;;;;17.39;64.36;96338.94;2084845;28;20894;-63
2022/09/09 11:07:12;;;;;;;6.55;0.93;;;;;;;17.43;63.82;96360.66;2080661;28;20287;-63
2022/09/09 11:16:03;;;;;;;6.93;0.85;;;;;;;17.00;63.88;96377.13;4216745;27;21073;-63
2022/09/09 11:32:33;;;;;;;4.63;1.00;;;;;;;16.96;70.66;96355.41;2077160;28;20567;-63
2022/09/09 11:40:23;;;;;;;2.42;0.70;;;;;;;18.02;65.55;96340.31;2065256;28;20236;-64
2022/09/09 11:41:34;;;;;;;6.18;0.93;;;;;;;18.08;66.70;96340.66;2059669;28;20290;-64
2022/09/09 11:42:36;;;;;;;3.15;0.95;;;;;;;18.24;66.05;96334.97;2059382;28;20353;-63
2022/09/09 11:43:58;;;;;;;8.02;1.30;;;;;;;18.24;65.03;96313.00;2059954;28;20348;-64
2022/09/09 11:45:11;;;;;;;5.95;0.90;;;;;;;18.47;64.53;96313.75;2067333;28;20367;-63
2022/09/09 11:46:17;;;;;;;3.42;0.98;;;;;;;18.74;63.11;96330.94;2061858;28;20214;-64
2022/09/09 11:47:29;;;;;;;2.15;0.75;;;;;;;18.74;62.18;96313.31;2065360;28;20289;-63
2022/09/09 11:48:48;;;;;;;2.72;0.80;;;;;;;19.34;60.91;96318.03;2064449;28;20249;-64
2022/09/09 11:49:49;;;;;;;8.02;1.40;;;;;;;19.71;58.71;96316.69;2066988;28;20293;-64
2022/09/09 11:51:08;;;;;;;5.25;1.15;;;;;;;19.95;57.57;96316.38;2065617;28;20771;-63
2022/09/09 11:52:36;;;;;;;4.30;0.80;;;;;;;20.86;55.49;96318.88;2066579;28;20202;-66
2022/09/09 11:53:54;;;;;;;2.05;0.75;;;;;;;22.38;52.12;96320.63;2063872;28;20225;-65
2022/09/09 11:54:56;;;;;;;3.60;0.80;;;;;;;22.54;50.73;96308.47;2063369;28;20658;-66
2022/09/09 11:56:09;;;;;;;2.42;0.80;;;;;;;23.38;48.77;96301.88;2067247;28;20284;-66
2022/09/09 11:57:25;;;;;;;2.63;0.90;;;;;;;23.01;49.91;96286.94;2064303;28;20218;-66
2022/09/09 11:58:32;;;;;;;3.50;0.70;;;;;;;22.77;50.43;96306.22;2065731;28;20245;-66
2022/09/09 11:59:33;;;;;;;5.03;0.80;;;;;;;21.87;52.50;96301.59;2053996;28;20278;-66
2022/09/09 12:00:44;;;;;;;6.00;1.30;;;;;;;21.60;53.66;96302.38;2057582;28;20786;-65
2022/09/09 12:01:56;;;;;;;2.35;0.80;;;;;;;22.93;50.58;96297.50;2062937;28;20854;-66
2022/09/09 12:02:57;;;;;;;5.75;1.00;;;;;;;23.24;49.28;96295.28;2067112;28;20788;-66
2022/09/09 12:04:10;;;;;;;3.22;0.90;;;;;;;23.00;48.01;96293.25;2053819;28;20227;-65
2022/09/09 12:05:13;;;;;;;5.80;0.90;;;;;;;22.49;47.22;96291.16;2055490;28;20342;-66
2022/09/09 12:06:43;;;;;;;3.67;0.80;;;;;;;22.75;48.38;96295.69;2066677;28;20692;-66
2022/09/09 12:07:56;;;;;;;2.33;0.70;;;;;;;22.84;46.76;96280.63;2060376;28;20303;-66
2022/09/09 12:27:22;;;;;;;2.05;0.70;;;;;;;21.36;51.22;96274.50;2063513;28;20178;-63
2022/09/09 12:28:58;;;;;;;2.95;1.00;;;;;;;21.92;49.88;96286.03;2057315;28;20286;-64
2022/09/09 12:30:10;;;;;;;3.83;1.00;;;;;;;21.96;50.66;96279.44;2059376;28;20234;-64
2022/09/09 12:31:23;;;;;;;2.50;0.70;;;;;;;21.93;51.31;96279.75;2063391;28;20206;-65
2022/09/09 12:32:26;;;;;;;2.80;0.82;;;;;;;21.92;51.50;96283.38;2063117;28;20301;-64
2022/09/09 12:33:35;;;;;;;2.70;0.82;;;;;;;22.23;51.73;96279.56;2064111;28;20198;-64
2022/09/09 12:34:37;;;;;;;3.03;0.90;;;;;;;22.05;51.46;96292.81;2065218;28;20248;-64
2022/09/09 12:35:41;;;;;;;3.15;1.00;;;;;;;22.13;51.34;96283.13;2066331;28;20203;-64
2022/09/09 12:36:47;;;;;;;2.53;0.80;;;;;;;22.32;51.30;96284.81;2067238;28;20290;-65
2022/09/09 12:38:07;;;;;;;1.63;0.77;;;;;;;21.98;51.67;96274.00;2062935;28;20219;-62
2022/09/09 12:39:34;;;;;;;2.33;0.75;;;;;;;21.87;52.00;96282.97;2064498;28;20208;-62
2022/09/09 12:40:35;;;;;;;4.40;0.80;;;;;;;21.92;50.74;96277.22;2061889;28;20529;-63
2022/09/09 12:41:37;;;;;;;6.10;1.00;;;;;;;21.47;52.64;96276.97;2062972;28;20289;-62
2022/09/09 12:42:40;;;;;;;5.10;0.90;;;;;;;21.99;51.98;96276.50;2063068;28;20245;-63
2022/09/09 12:43:41;;;;;;;1.40;0.68;;;;;;;21.94;51.33;96267.28;2058104;28;20234;-63
2022/09/09 12:44:55;;;;;;;2.70;0.73;;;;;;;22.00;51.33;96278.16;2060976;28;20202;-63
2022/09/09 12:46:02;;;;;;;8.07;1.08;;;;;;;21.68;50.24;96282.09;2058527;28;20295;-63
2022/09/09 12:47:04;;;;;;;4.30;0.80;;;;;;;21.34;51.21;96284.41;2057412;28;20213;-65
2022/09/09 12:48:11;;;;;;;2.60;0.85;;;;;;;21.44;52.33;96271.94;2056455;28;20287;-65
2022/09/09 12:49:36;;;;;;;4.00;1.70;;;;;;;21.61;50.81;96258.91;2063465;28;20190;-65
2022/09/09 12:50:51;;;;;;;4.85;0.75;;;;;;;21.76;50.95;96246.81;2057217;28;20234;-65
2022/09/09 12:51:53;;;;;;;2.63;0.88;;;;;;;21.26;51.47;96234.69;2058573;28;20673;-65
2022/09/09 12:53:01;;;;;;;4.07;0.80;;;;;;;21.51;50.80;96258.94;2055560;28;20226;-65
2022/09/09 12:54:03;;;;;;;3.40;0.70;;;;;;;21.00;52.03;96248.63;2056448;28;20201;-66
2022/09/09 12:55:08;;;;;;;5.45;1.08;;;;;;;20.69;52.66;96254.06;2059731;28;20285;-65
2022/09/09 12:56:19;;;;;;;5.60;0.90;;;;;;;21.43;51.19;96259.63;2062552;28;20222;-65
2022/09/09 12:57:25;;;;;;;4.30;1.20;;;;;;;21.88;49.81;96265.19;2061992;28;20309;-64
2022/09/09 12:58:32;;;;;;;3.05;0.90;;;;;;;21.31;50.71;96261.66;2061604;28;20222;-65
2022/09/09 12:59:39;;;;;;;6.78;1.20;;;;;;;20.82;51.50;96255.63;2058333;28;20253;-65
2022/09/09 13:00:51;;;;;;;5.55;0.93;;;;;;;20.55;52.75;96257.97;2057345;28;20290;-65
2022/09/09 13:01:58;;;;;;;7.05;0.98;;;;;;;20.51;53.10;96261.06;2062366;28;20198;-64
2022/09/09 13:03:14;;;;;;;3.35;0.80;;;;;;;20.39;53.39;96257.69;2061698;28;20223;-65
2022/09/09 13:04:22;;;;;;;3.97;1.10;;;;;;;20.75;52.38;96238.59;2055286;28;20294;-65
2022/09/09 13:05:36;;;;;;;4.03;0.90;;;;;;;21.40;50.20;96245.84;2056904;28;20341;-65
2022/09/09 13:06:37;;;;;;;2.00;0.80;;;;;;;21.81;50.11;96257.00;2058698;28;20238;-64
2022/09/09 13:07:39;;;;;;;7.38;1.67;;;;;;;21.03;51.18;96239.53;2059287;28;20245;-65
2022/09/09 13:08:40;;;;;;;12.55;4.20;;;;;;;20.78;51.46;96249.75;2060933;28;20235;-64
2022/09/09 13:09:43;;;;;;;3.08;1.23;;;;;;;20.21;52.59;96191.28;2061847;28;20249;-63
2022/09/09 13:10:54;;;;;;;4.25;1.20;;;;;;;20.37;52.74;96249.06;2061006;28;20191;-66
2022/09/09 13:12:07;;;;;;;6.22;1.23;;;;;;;20.40;52.24;96240.81;2058661;28;20223;-64
2022/09/09 13:13:17;;;;;;;4.70;1.05;;;;;;;20.37;51.94;96244.59;2062090;28;20198;-65
2022/09/09 13:14:29;;;;;;;2.58;0.80;;;;;;;20.56;51.99;96254.34;2057892;28;20295;-66
2022/09/09 13:27:20;;;;;;;5.00;1.30;;;;;;;22.09;46.66;96259.63;2061324;28;20182;-64
2022/09/09 13:28:24;;;;;;;3.85;1.15;;;;;;;21.90;46.99;96253.44;2059461;28;20293;-65
2022/09/09 13:29:26;;;;;;;3.53;1.00;;;;;;;21.90;46.65;96255.28;2051778;28;20239;-66
2022/09/09 13:30:36;;;;;;;5.47;0.80;;;;;;;22.15;45.59;96243.91;2052377;28;20234;-65
2022/09/09 13:31:40;;;;;;;4.20;0.90;;;;;;;22.53;44.51;96241.16;2060426;28;20230;-64
2022/09/09 13:32:41;;;;;;;12.02;5.03;;;;;;;22.50;44.55;96239.63;2060960;28;20733;-64
2022/09/09 13:33:42;;;;;;;1.98;0.80;;;;;;;22.26;44.35;96232.22;2061651;28;20235;-65
2022/09/09 13:34:52;;;;;;;6.13;1.13;;;;;;;21.81;45.46;96233.94;2059026;28;20285;-64
2022/09/09 13:35:57;;;;;;;6.85;1.15;;;;;;;22.64;45.04;96230.28;2058828;28;20233;-64
2022/09/09 13:37:07;;;;;;;3.40;0.70;;;;;;;22.98;43.65;96229.53;2058139;28;20590;-65
2022/09/09 13:38:09;;;;;;;4.70;1.65;;;;;;;22.37;44.80;96233.03;2059826;28;20241;-65
2022/09/09 13:39:20;;;;;;;3.80;0.73;;;;;;;21.84;46.21;96236.28;2060712;28;20669;-65
2022/09/09 13:40:23;;;;;;;1.98;0.70;;;;;;;21.45;46.20;96231.13;2057906;28;20249;-65
2022/09/09 13:41:32;;;;;;;1.98;0.70;;;;;;;21.67;45.79;96235.28;2057098;28;20238;-65
2022/09/09 13:42:42;;;;;;;4.82;1.05;;;;;;;22.10;45.28;96216.94;2062197;28;20222;-65
2022/09/09 13:49:02;;;;;;;5.03;2.40;;;;;;;20.92;47.42;96237.88;2059651;28;20222;-66
2022/09/09 13:50:30;;;;;;;10.57;2.47;;;;;;;21.57;46.99;96225.66;2055359;28;20286;-65
2022/09/09 13:51:36;;;;;;;1.95;0.70;;;;;;;21.55;47.33;96225.81;2055099;28;20207;-65
2022/09/09 13:52:38;;;;;;;6.95;0.80;;;;;;;22.03;47.13;96231.84;2055068;28;20309;-66
2022/09/09 13:53:40;;;;;;;4.30;1.02;;;;;;;22.72;44.75;96231.34;2058921;28;20200;-66
2022/09/09 13:54:42;;;;;;;4.05;0.80;;;;;;;23.02;44.79;96231.84;2057814;28;20286;-66
2022/09/09 13:55:44;;;;;;;5.55;0.80;;;;;;;23.12;43.80;96235.25;2060327;28;20290;-66
2022/09/09 13:56:50;;;;;;;3.85;1.00;;;;;;;22.90;43.71;96240.09;2059260;28;20203;-65
2022/09/09 13:58:01;;;;;;;3.85;0.90;;;;;;;22.69;43.35;96237.81;2058542;28;20222;-67
2022/09/09 13:59:04;;;;;;;3.17;0.70;;;;;;;22.48;43.08;96222.97;2057904;28;20779;-66
2022/09/09 14:00:16;;;;;;;1.90;0.90;;;;;;;22.75;43.37;96225.69;2058215;28;20673;-67
2022/09/09 14:08:06;;;;;;;4.85;2.35;;;;;;;22.85;44.35;96222.94;2059138;28;20308;-64
2022/09/09 14:09:11;;;;;;;4.55;1.73;;;;;;;22.76;43.03;96232.69;2058590;28;20226;-65
2022/09/09 14:10:13;;;;;;;9.43;0.80;;;;;;;22.41;43.98;96226.41;2059574;28;20294;-65
2022/09/09 14:11:14;;;;;;;3.00;0.80;;;;;;;22.43;44.46;96222.59;2060566;28;20734;-65
2022/09/09 14:12:16;;;;;;;1.60;0.60;;;;;;;21.75;44.55;96220.38;2061277;28;20819;-66
2022/09/09 14:25:05;;;;;;;6.30;0.70;;;;;;;21.51;45.04;96227.91;2060949;28;20670;-67
2022/09/09 14:26:07;;;;;;;4.30;0.80;;;;;;;21.20;46.12;96227.31;2058481;28;20897;-66
2022/09/09 14:27:08;;;;;;;1.30;0.60;;;;;;;21.11;46.91;96225.53;2060296;28;20230;-67
2022/09/09 14:28:11;;;;;;;4.50;1.02;;;;;;;20.84;46.68;96221.84;2061811;28;20253;-68
2022/09/09 14:29:13;;;;;;;2.72;0.70;;;;;;;20.53;47.26;96209.56;2057661;28;20293;-68
2022/09/09 14:30:14;;;;;;;2.50;0.90;;;;;;;20.57;47.47;96223.38;2059250;28;20626;-67
2022/09/09 14:31:17;;;;;;;6.03;0.80;;;;;;;20.47;47.74;96217.25;2059554;28;20674;-67
2022/09/09 14:32:19;;;;;;;2.47;0.80;;;;;;;20.64;47.88;96232.44;2059774;28;20203;-66
2022/09/09 14:33:21;;;;;;;5.07;1.40;;;;;;;20.28;47.62;96203.00;2061349;28;20293;-67
2022/09/09 14:34:22;;;;;;;4.30;0.80;;;;;;;20.06;48.39;96218.22;2059405;28;20682;-67
2022/09/09 14:35:27;;;;;;;2.95;0.70;;;;;;;20.02;48.84;96229.22;2059301;28;20222;-68
2022/09/09 14:36:29;;;;;;;2.53;0.80;;;;;;;20.11;48.98;96225.72;2059325;28;20231;-66
2022/09/09 14:37:31;;;;;;;2.75;0.90;;;;;;;20.20;49.27;96224.91;2058951;28;20227;-67
2022/09/09 14:38:39;;;;;;;3.20;0.90;;;;;;;20.16;49.03;96235.94;2059499;28;20305;-67
2022/09/09 14:39:40;;;;;;;1.83;0.63;;;;;;;20.15;48.83;96239.53;2057679;28;20561;-67
2022/09/09 14:40:45;;;;;;;1.75;0.70;;;;;;;20.03;48.91;96234.38;2060636;28;20268;-70
2022/09/09 14:41:46;;;;;;;4.35;0.88;;;;;;;20.25;47.06;96234.25;2058221;28;20209;-68
2022/09/09 14:42:48;;;;;;;1.50;0.70;;;;;;;20.36;45.70;96231.47;2058874;28;20661;-69
2022/09/09 14:43:50;;;;;;;1.90;0.70;;;;;;;20.17;45.70;96201.31;2059374;28;20252;-68
2022/09/09 14:44:51;;;;;;;3.05;0.77;;;;;;;20.38;45.92;96229.53;2059275;28;20277;-68
2022/09/09 14:45:52;;;;;;;2.78;0.93;;;;;;;20.78;45.66;96233.84;2055222;28;20827;-68
2022/09/09 14:46:54;;;;;;;6.45;0.80;;;;;;;21.60;44.74;96239.50;2055924;28;20203;-68
2022/09/09 14:47:56;;;;;;;1.40;0.70;;;;;;;22.07;43.94;96203.09;2055602;28;20218;-68
2022/09/09 14:48:58;;;;;;;7.22;0.85;;;;;;;22.43;43.71;96241.22;2056790;28;20239;-68
2022/09/09 14:50:00;;;;;;;3.33;0.98;;;;;;;22.25;44.30;96237.72;2052670;28;20238;-68
2022/09/09 14:51:25;;;;;;;3.17;0.80;;;;;;;22.23;45.08;96240.50;2045702;28;20743;-68
2022/09/09 14:52:26;;;;;;;3.75;0.90;;;;;;;22.29;44.37;96233.75;2057265;28;20269;-68
2022/09/09 14:53:31;;;;;;;2.53;0.70;;;;;;;22.43;43.73;96232.41;2058593;28;20199;-67
2022/09/09 15:01:13;;;;;;;3.60;0.80;;;;;;;21.74;45.59;96239.97;2057586;28;20229;-68
2022/09/09 15:02:15;;;;;;;3.78;0.85;;;;;;;22.59;44.28;96251.19;2056143;28;20289;-68
2022/09/09 15:03:16;;;;;;;7.18;1.05;;;;;;;22.99;43.97;96246.31;2057301;28;20191;-68
2022/09/09 15:04:18;;;;;;;1.95;0.77;;;;;;;23.43;43.38;96245.47;2059201;28;20663;-68
2022/09/09 15:05:24;;;;;;;5.88;1.25;;;;;;;23.27;43.02;96238.19;2059918;28;20233;-67
2022/09/09 15:06:28;;;;;;;6.85;0.70;;;;;;;22.61;44.20;96235.91;2060222;28;20227;-67
2022/09/09 15:07:31;;;;;;;4.85;1.25;;;;;;;22.75;44.08;96239.81;2058200;28;20305;-67
2022/09/09 15:08:33;;;;;;;3.88;0.80;;;;;;;23.15;43.32;96234.97;2059532;28;20242;-68
2022/09/09 15:09:34;;;;;;;3.15;1.00;;;;;;;23.40;42.82;96245.75;2057660;28;20293;-68
2022/09/09 15:10:39;;;;;;;7.75;1.10;;;;;;;22.95;43.53;96235.13;2060701;28;20241;-67
2022/09/09 15:11:40;;;;;;;4.20;0.75;;;;;;;23.35;43.36;96234.75;2056980;28;20293;-68
2022/09/09 15:12:42;;;;;;;1.90;0.75;;;;;;;23.46;43.11;96242.47;2057983;28;20310;-68
2022/09/09 15:13:44;;;;;;;9.35;0.95;;;;;;;23.48;42.82;96235.16;2058795;28;20209;-68
2022/09/09 15:14:46;;;;;;;3.25;0.60;;;;;;;23.25;43.04;96235.69;2057375;28;20282;-67
2022/09/09 15:15:53;;;;;;;4.57;1.27;;;;;;;23.15;43.75;96232.31;2058244;28;20800;-68
2022/09/09 15:16:55;;;;;;;5.78;0.93;;;;;;;23.39;43.35;96223.63;2059345;28;20285;-68
2022/09/09 15:17:56;;;;;;;2.58;0.68;;;;;;;23.38;42.23;96216.63;2059704;28;20223;-68
2022/09/09 15:37:06;;;;;;;1.98;0.90;;;;;;;19.86;50.18;96261.56;2056639;28;20230;-62
2022/09/09 15:38:08;;;;;;;4.88;0.90;;;;;;;19.82;50.48;96263.63;2058086;28;20199;-62
2022/09/09 15:39:15;;;;;;;3.90;0.93;;;;;;;19.82;50.78;96265.38;2058370;28;20338;-62
2022/09/09 15:40:17;;;;;;;2.65;0.93;;;;;;;19.79;51.13;96261.19;2056892;28;20234;-62
2022/09/09 15:41:20;;;;;;;8.20;1.73;;;;;;;19.72;51.42;96252.97;2059442;28;20249;-62
2022/09/09 15:54:05;;;;;;;2.75;0.90;;;;;;;19.30;53.30;96276.91;2055929;28;20227;-61
2022/09/09 15:55:11;;;;;;;6.10;1.20;;;;;;;19.33;53.63;96274.00;2056768;28;20233;-61
2022/09/09 15:56:12;;;;;;;3.67;1.10;;;;;;;19.27;53.72;96271.88;2056955;28;20666;-60
2022/09/09 15:57:14;;;;;;;3.92;0.93;;;;;;;19.27;53.29;96277.16;2058222;28;20241;-62
2022/09/09 17:49:22;;;;;;;4.50;1.42;;;;;;;15.22;73.44;96323.84;2100969;27;20537;-61
